createdAt,value
2022-11-29T00:00:47.696Z,91360.38
2022-11-29T00:03:15.095Z,91355.34
2022-11-29T00:05:42.028Z,91359.75
2022-11-29T00:08:08.815Z,91363.06
2022-11-29T00:10:38.516Z,91366.69
2022-11-29T00:13:05.536Z,91368.53
2022-11-29T00:15:36.771Z,91357.03
2022-11-29T00:18:04.583Z,91359.31
2022-11-29T00:20:32.160Z,91355.63
2022-11-29T00:22:58.924Z,91350.59
2022-11-29T00:25:26.811Z,91352.56
2022-11-29T00:27:53.730Z,91360.19
2022-11-29T00:30:21.126Z,91356.25
2022-11-29T00:32:47.880Z,91350.50
2022-11-29T00:35:14.780Z,91341.84
2022-11-29T00:37:41.422Z,91352.59
2022-11-29T00:40:08.791Z,91343.13
2022-11-29T00:42:35.466Z,91338.22
2022-11-29T00:45:02.188Z,91335.78
2022-11-29T00:47:28.912Z,91315.72
2022-11-29T00:49:55.629Z,91319.47
2022-11-29T00:52:22.265Z,91323.44
2022-11-29T00:54:48.944Z,91319.47
2022-11-29T00:57:15.741Z,91323.59
2022-11-29T00:59:42.388Z,91323.75
2022-11-29T01:02:09.171Z,91310.63
2022-11-29T01:04:35.906Z,91323.06
2022-11-29T01:07:02.608Z,91320.94
2022-11-29T01:09:29.286Z,91318.34
2022-11-29T01:11:56.036Z,91317.38
2022-11-29T01:14:22.792Z,91324.22
2022-11-29T01:16:49.576Z,91311.53
2022-11-29T01:19:16.423Z,91293.59
2022-11-29T01:21:43.161Z,91315.91
2022-11-29T01:24:10.368Z,91313.94
2022-11-29T01:26:37.086Z,91311.34
2022-11-29T01:29:03.900Z,91313.84
2022-11-29T01:31:36.020Z,91310.16
2022-11-29T01:34:04.754Z,91314.84
2022-11-29T01:36:31.588Z,91308.41
2022-11-29T01:39:02.792Z,91310.78
2022-11-29T01:41:32.005Z,91311.44
2022-11-29T01:44:01.127Z,91311.94
2022-11-29T01:46:30.112Z,91306.44
2022-11-29T01:49:03.794Z,91300.63
2022-11-29T01:51:32.657Z,91318.97
2022-11-29T01:53:59.916Z,91315.03
2022-11-29T01:56:28.879Z,91308.00
2022-11-29T01:58:56.080Z,91307.53
2022-11-29T02:01:26.724Z,91301.91
2022-11-29T02:03:53.687Z,91307.81
2022-11-29T02:06:20.883Z,91312.34
2022-11-29T02:08:47.623Z,91297.31
2022-11-29T02:11:51.800Z,91312.06
2022-11-29T02:14:33.524Z,91297.44
2022-11-29T02:17:03.428Z,91312.78
2022-11-29T02:19:55.354Z,91305.69
2022-11-29T02:22:33.469Z,91303.22
2022-11-29T02:25:24.558Z,91306.34
2022-11-29T02:27:57.106Z,91307.44
2022-11-29T02:30:32.902Z,91308.66
2022-11-29T02:33:28.182Z,91291.38
2022-11-29T02:36:01.680Z,91311.63
2022-11-29T02:39:05.781Z,91316.97
2022-11-29T02:41:44.299Z,91315.75
2022-11-29T02:44:29.122Z,91314.16
2022-11-29T02:47:42.112Z,91312.78
2022-11-29T02:50:19.651Z,91303.34
2022-11-29T02:53:04.223Z,91310.34
2022-11-29T02:56:01.625Z,91314.34
2022-11-29T02:58:40.507Z,91314.66
2022-11-29T03:01:21.339Z,91323.81
2022-11-29T03:03:56.503Z,91325.13
2022-11-29T03:06:38.406Z,91321.16
2022-11-29T03:09:29.113Z,91325.38
2022-11-29T03:12:16.571Z,91321.59
2022-11-29T03:14:55.284Z,91307.19
2022-11-29T03:18:00.785Z,91330.47
2022-11-29T03:20:46.567Z,91326.84
2022-11-29T03:23:37.135Z,91323.34
2022-11-29T03:26:29.926Z,91333.59
2022-11-29T03:29:07.192Z,91334.22
2022-11-29T03:31:38.627Z,91336.34
2022-11-29T03:34:26.496Z,91336.63
2022-11-29T03:37:18.793Z,91337.53
2022-11-29T03:39:54.436Z,91337.81
2022-11-29T03:42:30.429Z,91313.19
2022-11-29T03:45:09.251Z,91337.94
2022-11-29T03:47:42.383Z,91329.09
2022-11-29T03:50:16.521Z,91327.56
2022-11-29T03:52:52.336Z,91331.59
2022-11-29T03:55:21.777Z,91329.34
2022-11-29T03:58:10.238Z,91329.22
2022-11-29T04:00:49.084Z,91330.97
2022-11-29T04:03:40.686Z,91320.72
2022-11-29T04:06:24.518Z,91320.09
2022-11-29T04:09:11.079Z,91336.03
2022-11-29T04:12:15.440Z,91337.09
2022-11-29T04:14:57.372Z,91339.81
2022-11-29T04:17:51.893Z,91343.78
2022-11-29T04:20:40.363Z,91341.13
2022-11-29T04:23:43.844Z,91344.81
2022-11-29T04:26:39.255Z,91341.63
2022-11-29T04:29:13.819Z,91341.63
2022-11-29T04:31:59.868Z,91347.22
2022-11-29T04:34:38.955Z,91345.09
2022-11-29T04:37:33.639Z,91344.19
2022-11-29T04:40:20.596Z,91352.09
2022-11-29T04:43:01.314Z,91350.09
2022-11-29T04:46:05.740Z,91358.03
2022-11-29T04:49:02.091Z,91339.78
2022-11-29T04:51:53.514Z,91349.03
2022-11-29T04:54:22.991Z,91354.31
2022-11-29T04:56:55.201Z,91354.44
2022-11-29T04:59:50.299Z,91351.91
2022-11-29T05:02:41.363Z,91353.13
2022-11-29T05:05:24.607Z,91354.84
2022-11-29T05:08:35.891Z,91358.31
2022-11-29T05:11:25.002Z,91356.88
2022-11-29T05:14:08.982Z,91362.59
2022-11-29T05:17:26.651Z,91375.88
2022-11-29T05:19:56.032Z,91366.97
2022-11-29T05:23:16.942Z,91373.03
2022-11-29T05:26:00.494Z,91369.66
2022-11-29T05:28:33.276Z,91373.56
2022-11-29T05:31:08.595Z,91373.53
2022-11-29T05:33:56.056Z,91379.06
2022-11-29T05:36:46.691Z,91372.84
2022-11-29T05:39:41.629Z,91383.59
2022-11-29T05:42:38.731Z,91380.56
2022-11-29T05:45:23.441Z,91384.56
2022-11-29T05:48:02.458Z,91383.91
2022-11-29T05:50:37.472Z,91391.31
2022-11-29T05:53:22.378Z,91398.78
2022-11-29T05:55:55.226Z,91394.97
2022-11-29T05:58:49.495Z,91409.53
2022-11-29T06:01:19.974Z,91406.06
2022-11-29T06:03:59.653Z,91401.31
2022-11-29T06:06:36.656Z,91406.91
2022-11-29T06:09:35.675Z,91396.41
2022-11-29T06:12:23.755Z,91407.91
2022-11-29T06:15:13.777Z,91398.97
2022-11-29T06:17:55.670Z,91404.19
2022-11-29T06:20:37.455Z,91413.38
2022-11-29T06:23:13.314Z,91413.38
2022-11-29T06:25:42.121Z,91409.22
2022-11-29T06:28:30.453Z,91403.63
2022-11-29T06:31:19.262Z,91404.09
2022-11-29T06:33:58.755Z,91407.81
2022-11-29T06:36:39.912Z,91408.94
2022-11-29T06:39:06.956Z,91416.81
2022-11-29T06:41:33.972Z,91412.38
2022-11-29T06:44:00.993Z,91410.72
2022-11-29T06:46:36.985Z,91411.00
2022-11-29T06:49:11.968Z,91388.47
2022-11-29T06:51:38.451Z,91406.88
2022-11-29T06:54:22.481Z,91403.34
2022-11-29T06:57:04.455Z,91399.38
2022-11-29T06:59:43.367Z,91395.75
2022-11-29T07:02:28.648Z,91396.69
2022-11-29T07:05:17.308Z,91404.09
2022-11-29T07:07:44.357Z,91409.50
2022-11-29T07:10:17.708Z,91416.03
2022-11-29T07:12:46.492Z,91412.09
2022-11-29T07:15:18.152Z,91414.31
2022-11-29T07:18:03.715Z,91412.47
2022-11-29T07:21:08.651Z,91415.47
2022-11-29T07:23:43.255Z,91408.88
2022-11-29T07:26:09.837Z,91414.16
2022-11-29T07:28:39.656Z,91410.50
2022-11-29T07:31:27.699Z,91418.31
2022-11-29T07:34:17.501Z,91419.75
2022-11-29T07:36:56.384Z,91422.56
2022-11-29T07:39:40.981Z,91418.53
2022-11-29T07:42:46.216Z,91422.81
2022-11-29T07:45:33.919Z,91416.50
2022-11-29T07:48:00.528Z,91418.47
2022-11-29T07:50:28.939Z,91419.06
2022-11-29T07:52:56.296Z,91419.50
2022-11-29T07:55:25.153Z,91420.09
2022-11-29T07:57:52.411Z,91421.19
2022-11-29T08:00:20.137Z,91405.66
2022-11-29T08:02:48.586Z,91425.66
2022-11-29T08:05:15.775Z,91401.50
2022-11-29T08:07:42.621Z,91412.91
2022-11-29T08:10:16.602Z,91420.56
2022-11-29T08:12:45.909Z,91390.63
2022-11-29T08:15:12.987Z,91412.41
2022-11-29T08:17:40.003Z,91417.91
2022-11-29T08:20:08.721Z,91407.47
2022-11-29T08:22:35.579Z,91424.03
2022-11-29T08:25:02.533Z,91413.50
2022-11-29T08:27:29.366Z,91407.16
2022-11-29T08:29:56.129Z,91411.66
2022-11-29T08:32:23.159Z,91401.53
2022-11-29T08:34:49.877Z,91411.06
2022-11-29T08:37:16.505Z,91406.22
2022-11-29T08:39:43.380Z,91409.41
2022-11-29T08:42:10.620Z,91401.94
2022-11-29T08:44:37.385Z,91403.69
2022-11-29T08:47:22.559Z,91405.72
2022-11-29T08:50:04.385Z,91401.16
2022-11-29T08:52:55.132Z,91402.28
2022-11-29T08:55:24.254Z,91398.25
2022-11-29T08:57:52.075Z,91399.75
2022-11-29T09:00:21.270Z,91402.53
2022-11-29T09:02:48.938Z,91393.22
2022-11-29T09:05:15.904Z,91390.09
2022-11-29T09:07:44.551Z,91384.84
2022-11-29T09:10:12.220Z,91383.84
2022-11-29T09:12:40.010Z,91376.00
2022-11-29T09:15:11.365Z,91369.91
2022-11-29T09:17:38.170Z,91367.22
2022-11-29T09:20:06.095Z,91375.72
2022-11-29T09:22:32.712Z,91370.06
2022-11-29T09:24:59.456Z,91375.72
2022-11-29T09:27:26.133Z,91375.38
2022-11-29T09:29:52.822Z,91362.72
2022-11-29T09:32:19.710Z,91360.28
2022-11-29T09:34:46.608Z,91370.03
2022-11-29T09:37:13.571Z,91367.34
2022-11-29T09:39:41.572Z,91366.84
2022-11-29T09:42:29.983Z,91362.22
2022-11-29T09:45:19.875Z,91364.66
2022-11-29T09:47:49.469Z,91357.44
2022-11-29T09:50:35.611Z,91356.06
2022-11-29T09:53:26.151Z,91360.50
2022-11-29T09:56:16.413Z,91352.94
2022-11-29T09:58:57.654Z,91349.19
2022-11-29T10:01:28.524Z,91352.72
2022-11-29T10:04:03.093Z,91344.31
2022-11-29T10:06:35.173Z,91348.63
2022-11-29T10:09:05.945Z,91352.56
2022-11-29T10:11:47.994Z,91340.84
2022-11-29T10:14:20.454Z,91352.22
2022-11-29T10:16:52.440Z,91346.81
2022-11-29T10:19:25.478Z,91347.47
2022-11-29T10:22:10.496Z,91346.59
2022-11-29T10:24:38.708Z,91327.09
2022-11-29T10:27:15.225Z,91339.44
2022-11-29T10:29:41.912Z,91332.09
2022-11-29T10:32:14.461Z,91319.97
2022-11-29T10:34:42.431Z,91327.19
2022-11-29T10:37:21.372Z,91318.44
2022-11-29T10:39:50.853Z,91324.50
2022-11-29T10:42:44.478Z,91326.03
2022-11-29T10:45:20.028Z,91318.44
2022-11-29T10:47:48.288Z,91322.56
2022-11-29T10:50:22.811Z,91326.66
2022-11-29T10:52:49.509Z,91327.31
2022-11-29T10:55:17.506Z,91322.44
2022-11-29T10:58:27.996Z,91328.19
2022-11-29T11:01:08.455Z,91331.41
2022-11-29T11:03:41.968Z,91321.88
2022-11-29T11:06:15.967Z,91331.44
2022-11-29T11:08:48.435Z,91325.59
2022-11-29T11:11:25.162Z,91331.78
2022-11-29T11:14:06.961Z,91329.16
2022-11-29T11:16:37.399Z,91329.16
2022-11-29T11:19:43.022Z,91324.19
2022-11-29T11:22:21.115Z,91317.34
2022-11-29T11:24:57.338Z,91315.09
2022-11-29T11:27:41.875Z,91314.78
2022-11-29T11:30:23.549Z,91318.44
2022-11-29T11:33:30.307Z,91321.13
2022-11-29T11:36:02.874Z,91321.47
2022-11-29T11:38:30.130Z,91318.44
2022-11-29T11:41:04.925Z,91307.09
2022-11-29T11:43:32.861Z,91311.50
2022-11-29T11:45:59.705Z,91299.94
2022-11-29T11:48:27.282Z,91314.53
2022-11-29T11:50:57.724Z,91316.28
2022-11-29T11:53:36.704Z,91304.72
2022-11-29T11:56:10.509Z,91311.72
2022-11-29T11:58:53.293Z,91303.94
2022-11-29T12:01:36.401Z,91305.03
2022-11-29T12:04:14.979Z,91305.16
2022-11-29T12:06:51.877Z,91305.69
2022-11-29T12:09:27.848Z,91308.91
2022-11-29T12:12:05.653Z,91306.63
2022-11-29T12:14:32.286Z,91310.88
2022-11-29T12:17:08.194Z,91302.88
2022-11-29T12:19:43.251Z,91299.63
2022-11-29T12:22:18.103Z,91301.78
2022-11-29T12:24:55.463Z,91305.03
2022-11-29T12:27:22.361Z,91306.88
2022-11-29T12:29:49.034Z,91311.50
2022-11-29T12:32:41.522Z,91303.63
2022-11-29T12:35:42.035Z,91312.81
2022-11-29T12:38:37.494Z,91315.41
2022-11-29T12:41:13.095Z,91318.00
2022-11-29T12:44:47.977Z,91311.94
2022-11-29T12:47:42.156Z,91317.69
2022-11-29T12:50:21.239Z,91310.44
2022-11-29T12:52:56.156Z,91316.03
2022-11-29T12:55:37.997Z,91311.72
2022-11-29T12:58:14.386Z,91304.78
2022-11-29T13:00:51.603Z,91313.03
2022-11-29T13:03:30.562Z,91312.59
2022-11-29T13:06:33.545Z,91321.56
2022-11-29T13:09:46.041Z,91311.06
2022-11-29T13:12:39.683Z,91315.66
2022-11-29T13:15:10.748Z,91310.66
2022-11-29T13:17:52.665Z,91312.50
2022-11-29T13:20:38.023Z,91318.25
2022-11-29T13:24:08.246Z,91314.53
2022-11-29T13:26:37.847Z,91315.09
2022-11-29T13:29:06.436Z,91322.34
2022-11-29T13:31:34.123Z,91318.75
2022-11-29T13:34:06.514Z,91316.72
2022-11-29T13:36:54.123Z,91323.22
2022-11-29T13:39:39.118Z,91317.56
2022-11-29T13:42:13.858Z,91333.66
2022-11-29T13:44:53.791Z,91322.97
2022-11-29T13:47:20.936Z,91333.66
2022-11-29T13:50:05.227Z,91314.44
2022-11-29T13:52:43.699Z,91329.91
2022-11-29T13:55:14.602Z,91330.13
2022-11-29T13:58:15.563Z,91329.56
2022-11-29T14:00:46.699Z,91323.94
2022-11-29T14:03:28.416Z,91334.78
2022-11-29T14:06:10.349Z,91332.19
2022-11-29T14:09:21.919Z,91331.75
2022-11-29T14:12:01.917Z,91324.94
2022-11-29T14:14:49.359Z,91331.41
2022-11-29T14:17:55.312Z,91334.88
2022-11-29T14:20:30.645Z,91331.63
2022-11-29T14:23:06.647Z,91331.84
2022-11-29T14:25:54.177Z,91338.13
2022-11-29T14:28:20.821Z,91332.72
2022-11-29T14:30:54.067Z,91333.72
2022-11-29T14:33:57.828Z,91336.81
2022-11-29T14:36:38.465Z,91338.13
2022-11-29T14:39:24.156Z,91340.72
2022-11-29T14:42:18.797Z,91340.94
2022-11-29T14:44:51.190Z,91339.53
2022-11-29T14:47:27.079Z,91353.44
2022-11-29T14:49:57.067Z,91344.78
2022-11-29T14:52:30.479Z,91356.66
2022-11-29T14:54:57.768Z,91348.94
2022-11-29T14:57:53.646Z,91350.97
2022-11-29T15:00:29.867Z,91346.41
2022-11-29T15:03:09.527Z,91349.31
2022-11-29T15:05:44.116Z,91355.16
2022-11-29T15:08:33.100Z,91360.75
2022-11-29T15:11:04.660Z,91356.06
2022-11-29T15:13:34.489Z,91358.84
2022-11-29T15:16:22.277Z,91365.25
2022-11-29T15:18:59.305Z,91368.63
2022-11-29T15:21:37.242Z,91366.91
2022-11-29T15:24:13.166Z,91364.09
2022-11-29T15:26:58.381Z,91367.63
2022-11-29T15:29:26.366Z,91348.28
2022-11-29T15:31:55.667Z,91371.78
2022-11-29T15:34:40.294Z,91372.78
2022-11-29T15:37:07.118Z,91379.91
2022-11-29T15:39:36.453Z,91370.06
2022-11-29T15:42:10.202Z,91366.50
2022-11-29T15:44:37.413Z,91371.81
2022-11-29T15:47:27.248Z,91366.50
2022-11-29T15:49:54.515Z,91365.00
2022-11-29T15:52:24.990Z,91373.00
2022-11-29T15:54:56.963Z,91376.22
2022-11-29T15:57:30.038Z,91376.84
2022-11-29T16:00:01.097Z,91378.97
2022-11-29T16:02:31.672Z,91383.66
2022-11-29T16:05:13.968Z,91380.97
2022-11-29T16:07:41.898Z,91380.88
2022-11-29T16:10:18.647Z,91358.47
2022-11-29T16:13:00.103Z,91391.81
2022-11-29T16:15:29.587Z,91372.25
2022-11-29T16:17:56.526Z,91376.44
2022-11-29T16:20:25.915Z,91379.81
2022-11-29T16:23:11.340Z,91368.44
2022-11-29T16:25:52.378Z,91366.06
2022-11-29T16:28:19.516Z,91352.56
2022-11-29T16:30:46.432Z,91373.84
2022-11-29T16:33:21.529Z,91377.97
2022-11-29T16:35:48.767Z,91380.47
2022-11-29T16:38:21.827Z,91384.44
2022-11-29T16:41:02.222Z,91384.69
2022-11-29T16:43:44.236Z,91390.75
2022-11-29T16:46:20.154Z,91390.19
2022-11-29T16:48:50.564Z,91393.09
2022-11-29T16:51:23.894Z,91394.91
2022-11-29T16:53:52.927Z,91401.03
2022-11-29T16:56:23.310Z,91401.34
2022-11-29T16:59:16.982Z,91401.47
2022-11-29T17:01:41.079Z,91395.22
2022-11-29T17:04:08.801Z,91400.38
2022-11-29T17:06:36.313Z,91402.66
2022-11-29T17:09:04.073Z,91407.97
2022-11-29T17:11:30.856Z,91385.03
2022-11-29T17:13:57.727Z,91397.94
2022-11-29T17:16:25.227Z,91370.66
2022-11-29T17:18:54.844Z,91392.91
2022-11-29T17:21:24.920Z,91400.78
2022-11-29T17:23:52.784Z,91408.25
2022-11-29T17:26:20.134Z,91410.50
2022-11-29T17:28:48.388Z,91401.09
2022-11-29T17:31:18.514Z,91403.25
2022-11-29T17:33:45.694Z,91405.72
2022-11-29T17:36:15.538Z,91407.13
2022-11-29T17:38:43.619Z,91410.59
2022-11-29T17:41:12.842Z,91402.34
2022-11-29T17:43:39.883Z,91408.56
2022-11-29T17:46:11.280Z,91413.88
2022-11-29T17:48:41.016Z,91417.69
2022-11-29T17:51:22.822Z,91417.81
2022-11-29T17:53:55.721Z,91408.09
2022-11-29T17:56:25.121Z,91425.19
2022-11-29T17:58:56.276Z,91423.91
2022-11-29T18:01:25.136Z,91432.38
2022-11-29T18:03:54.874Z,91433.91
2022-11-29T18:06:25.645Z,91432.78
2022-11-29T18:08:55.575Z,91438.34
2022-11-29T18:11:25.397Z,91438.91
2022-11-29T18:13:56.757Z,91440.84
2022-11-29T18:16:26.353Z,91439.13
2022-11-29T18:19:00.853Z,91440.53
2022-11-29T18:21:28.292Z,91445.53
2022-11-29T18:23:55.548Z,91433.25
2022-11-29T18:26:24.479Z,91425.50
2022-11-29T18:28:51.952Z,91439.19
2022-11-29T18:31:28.214Z,91440.13
2022-11-29T18:33:57.725Z,91442.84
2022-11-29T18:36:28.439Z,91447.84
2022-11-29T18:38:57.368Z,91438.47
2022-11-29T18:41:25.699Z,91451.91
2022-11-29T18:44:00.980Z,91448.09
2022-11-29T18:46:36.587Z,91424.53
2022-11-29T18:49:06.203Z,91450.59
2022-11-29T18:51:34.328Z,91450.50
2022-11-29T18:54:01.902Z,91444.13
2022-11-29T18:56:30.635Z,91449.06
2022-11-29T18:59:05.536Z,91449.72
2022-11-29T19:01:34.236Z,91446.34
2022-11-29T19:04:01.737Z,91441.97
2022-11-29T19:06:38.559Z,91451.47
2022-11-29T19:09:06.902Z,91445.16
2022-11-29T19:11:35.142Z,91453.63
2022-11-29T19:14:04.488Z,91456.28
2022-11-29T19:16:33.496Z,91452.56
2022-11-29T19:19:01.314Z,91456.38
2022-11-29T19:21:31.843Z,91462.56
2022-11-29T19:24:14.273Z,91463.44
2022-11-29T19:26:44.487Z,91451.56
2022-11-29T19:29:12.150Z,91444.19
2022-11-29T19:31:39.713Z,91455.47
2022-11-29T19:34:06.956Z,91458.84
2022-11-29T19:36:37.189Z,91460.22
2022-11-29T19:39:03.897Z,91457.81
2022-11-29T19:41:33.013Z,91453.22
2022-11-29T19:44:05.235Z,91451.94
2022-11-29T19:46:38.289Z,91459.72
2022-11-29T19:49:06.895Z,91454.91
2022-11-29T19:51:34.485Z,91452.19
2022-11-29T19:54:03.664Z,91438.88
2022-11-29T19:56:31.387Z,91448.91
2022-11-29T19:59:00.047Z,91436.91
2022-11-29T20:01:37.706Z,91436.69
2022-11-29T20:04:04.826Z,91441.84
2022-11-29T20:06:31.527Z,91445.38
2022-11-29T20:08:58.422Z,91447.00
2022-11-29T20:11:25.949Z,91432.56
2022-11-29T20:13:57.521Z,91444.97
2022-11-29T20:16:25.331Z,91432.38
2022-11-29T20:18:53.123Z,91437.81
2022-11-29T20:21:31.515Z,91449.13
2022-11-29T20:24:07.120Z,91448.50
2022-11-29T20:26:37.071Z,91441.69
2022-11-29T20:29:06.048Z,91444.78
2022-11-29T20:31:33.984Z,91446.97
2022-11-29T20:34:00.927Z,91438.50
2022-11-29T20:36:43.481Z,91440.44
2022-11-29T20:39:39.108Z,91446.75
2022-11-29T20:42:43.971Z,91442.41
2022-11-29T20:45:12.298Z,91442.22
2022-11-29T20:47:45.248Z,91441.88
2022-11-29T20:50:32.104Z,91449.69
2022-11-29T20:53:24.487Z,91425.72
2022-11-29T20:55:51.300Z,91439.63
2022-11-29T20:58:19.572Z,91404.13
2022-11-29T21:00:46.577Z,91439.22
2022-11-29T21:03:14.921Z,91415.81
2022-11-29T21:05:42.020Z,91430.53
2022-11-29T21:08:08.867Z,91420.66
2022-11-29T21:10:35.953Z,91427.03
2022-11-29T21:13:03.195Z,91426.16
2022-11-29T21:15:30.383Z,91408.97
2022-11-29T21:17:57.391Z,91427.41
2022-11-29T21:20:26.648Z,91427.69
2022-11-29T21:22:55.997Z,91423.28
2022-11-29T21:25:34.853Z,91418.31
2022-11-29T21:28:01.957Z,91421.34
2022-11-29T21:30:29.349Z,91391.97
2022-11-29T21:32:56.380Z,91415.91
2022-11-29T21:35:23.060Z,91426.75
2022-11-29T21:37:54.576Z,91426.00
2022-11-29T21:40:21.193Z,91437.94
2022-11-29T21:42:47.846Z,91429.94
2022-11-29T21:45:15.805Z,91426.25
2022-11-29T21:47:44.062Z,91430.78
2022-11-29T21:50:12.093Z,91434.03
2022-11-29T21:52:38.882Z,91435.38
2022-11-29T21:55:06.077Z,91420.06
2022-11-29T21:57:32.736Z,91434.75
2022-11-29T21:59:59.434Z,91431.63
2022-11-29T22:02:26.219Z,91432.56
2022-11-29T22:04:55.097Z,91425.47
2022-11-29T22:07:21.835Z,91429.94
2022-11-29T22:09:48.469Z,91428.19
2022-11-29T22:12:33.151Z,91426.16
2022-11-29T22:15:00.670Z,91429.81
2022-11-29T22:17:27.439Z,91418.09
2022-11-29T22:19:54.078Z,91420.47
2022-11-29T22:22:20.806Z,91429.53
2022-11-29T22:24:47.778Z,91422.50
2022-11-29T22:27:14.637Z,91425.97
2022-11-29T22:29:41.310Z,91423.28
2022-11-29T22:32:07.978Z,91414.81
2022-11-29T22:34:34.575Z,91401.72
2022-11-29T22:37:01.301Z,91408.56
2022-11-29T22:39:28.018Z,91420.16
2022-11-29T22:41:55.409Z,91402.91
2022-11-29T22:44:25.965Z,91410.69
2022-11-29T22:46:52.828Z,91409.22
2022-11-29T22:49:19.864Z,91405.59
2022-11-29T22:51:46.949Z,91407.19
2022-11-29T22:54:17.547Z,91405.81
2022-11-29T22:56:45.565Z,91400.50
2022-11-29T22:59:13.011Z,91391.47
2022-11-29T23:01:41.402Z,91385.94
2022-11-29T23:04:09.666Z,91396.44
2022-11-29T23:06:39.124Z,91385.50
2022-11-29T23:09:10.704Z,91385.69
2022-11-29T23:11:38.551Z,91386.16
2022-11-29T23:14:05.327Z,91386.16
2022-11-29T23:16:33.138Z,91388.59
2022-11-29T23:19:01.044Z,91383.59
2022-11-29T23:21:30.354Z,91384.03
2022-11-29T23:23:59.094Z,91385.56
2022-11-29T23:26:28.613Z,91384.56
2022-11-29T23:28:56.155Z,91330.94
2022-11-29T23:31:23.844Z,91381.09
2022-11-29T23:33:50.754Z,91385.31
2022-11-29T23:36:18.274Z,91383.78
2022-11-29T23:38:45.129Z,91390.50
2022-11-29T23:41:12.145Z,91389.50
2022-11-29T23:43:40.768Z,91381.78
2022-11-29T23:46:10.399Z,91387.31
2022-11-29T23:48:37.250Z,91387.00
2022-11-29T23:51:04.056Z,91389.50
2022-11-29T23:53:30.860Z,91387.91
2022-11-29T23:56:06.658Z,91380.22
2022-11-29T23:58:34.507Z,91385.09
